createdAt,value
2018-02-15T00:00:35.971Z,-1.44
2018-02-15T00:03:03.393Z,-1.29
2018-02-15T00:05:31.521Z,-1.30
2018-02-15T00:07:58.949Z,-1.32
2018-02-15T00:10:26.363Z,-1.30
2018-02-15T00:12:53.777Z,-1.22
2018-02-15T00:15:21.198Z,-1.16
2018-02-15T00:17:48.617Z,-1.01
2018-02-15T00:20:16.032Z,-1.06
2018-02-15T00:22:43.457Z,-1.03
2018-02-15T00:25:10.860Z,-0.86
2018-02-15T00:27:38.291Z,-0.65
2018-02-15T00:30:05.688Z,-0.81
2018-02-15T00:32:33.103Z,-0.91
2018-02-15T00:35:00.530Z,-1.06
2018-02-15T00:37:27.933Z,-1.16
2018-02-15T00:39:55.356Z,-1.12
2018-02-15T00:42:22.759Z,-1.08
2018-02-15T00:44:50.186Z,-1.20
2018-02-15T00:47:17.649Z,-1.25
2018-02-15T00:49:45.062Z,-1.28
2018-02-15T00:52:12.468Z,-1.25
2018-02-15T00:54:40.297Z,-1.26
2018-02-15T00:57:07.701Z,-1.24
2018-02-15T00:59:35.151Z,-1.19
2018-02-15T01:02:03.561Z,-1.19
2018-02-15T01:04:30.980Z,-1.24
2018-02-15T01:06:58.398Z,-1.25
2018-02-15T01:09:25.808Z,-1.26
2018-02-15T01:11:53.837Z,-1.29
2018-02-15T01:14:21.253Z,-1.28
2018-02-15T01:16:48.664Z,-1.25
2018-02-15T01:19:16.081Z,-0.97
2018-02-15T01:21:43.493Z,-0.94
2018-02-15T01:24:10.921Z,-0.81
2018-02-15T01:26:38.333Z,-0.57
2018-02-15T01:29:05.748Z,-0.67
2018-02-15T01:31:33.161Z,-0.84
2018-02-15T01:34:00.588Z,-0.83
2018-02-15T01:36:28.005Z,-0.51
2018-02-15T01:38:55.417Z,-0.40
2018-02-15T01:41:22.836Z,-0.61
2018-02-15T01:43:50.278Z,-0.64
2018-02-15T01:46:17.672Z,-0.59
2018-02-15T01:48:45.093Z,-0.50
2018-02-15T01:51:12.513Z,-0.49
2018-02-15T01:53:39.966Z,-0.34
2018-02-15T01:56:07.348Z,-0.25
2018-02-15T01:58:35.309Z,-0.33
2018-02-15T02:01:02.728Z,-0.18
2018-02-15T02:03:30.145Z,-0.23
2018-02-15T02:05:57.563Z,-0.33
2018-02-15T02:08:24.973Z,-0.29
2018-02-15T02:10:52.379Z,-0.38
2018-02-15T02:13:19.798Z,-0.41
2018-02-15T02:15:47.287Z,-0.34
2018-02-15T02:18:14.701Z,-0.40
2018-02-15T02:20:42.122Z,-0.40
2018-02-15T02:23:09.524Z,-0.40
2018-02-15T02:25:36.956Z,-0.28
2018-02-15T02:28:04.379Z,-0.34
2018-02-15T02:30:31.809Z,-0.37
2018-02-15T02:32:59.229Z,-0.34
2018-02-15T02:35:26.649Z,-0.35
2018-02-15T02:37:54.069Z,-0.36
2018-02-15T02:40:21.476Z,-0.33
2018-02-15T02:42:48.899Z,-0.34
2018-02-15T02:45:16.309Z,-0.37
2018-02-15T02:47:43.728Z,-0.39
2018-02-15T02:50:11.133Z,-0.46
2018-02-15T02:52:38.566Z,-0.50
2018-02-15T02:55:05.977Z,-0.57
2018-02-15T02:57:33.403Z,-0.58
2018-02-15T03:00:00.813Z,-0.60
2018-02-15T03:02:28.245Z,-0.55
2018-02-15T03:04:55.653Z,-0.55
2018-02-15T03:07:23.076Z,-0.49
2018-02-15T03:09:50.500Z,-0.44
2018-02-15T03:12:17.921Z,-0.51
2018-02-15T03:14:45.329Z,-0.50
2018-02-15T03:17:12.883Z,-0.44
2018-02-15T03:19:40.292Z,-0.36
2018-02-15T03:22:08.248Z,-0.38
2018-02-15T03:24:35.659Z,-0.39
2018-02-15T03:27:03.068Z,-0.37
2018-02-15T03:29:30.479Z,-0.32
2018-02-15T03:31:57.909Z,-0.28
2018-02-15T03:34:25.316Z,-0.30
2018-02-15T03:36:52.736Z,-0.27
2018-02-15T03:39:20.136Z,-0.20
2018-02-15T03:41:47.569Z,-0.24
2018-02-15T03:44:14.985Z,-0.23
2018-02-15T03:46:42.401Z,-0.14
2018-02-15T03:49:09.823Z,-0.17
2018-02-15T03:51:37.240Z,-0.17
2018-02-15T03:54:04.648Z,-0.09
2018-02-15T03:56:32.375Z,-0.15
2018-02-15T03:58:59.808Z,-0.19
2018-02-15T04:01:27.222Z,-0.05
2018-02-15T04:03:54.649Z,-0.03
2018-02-15T04:06:22.060Z,0.20
2018-02-15T04:08:49.474Z,0.05
2018-02-15T04:11:16.880Z,-0.03
2018-02-15T04:13:44.303Z,-0.08
2018-02-15T04:16:11.707Z,0.04
2018-02-15T04:18:39.117Z,0.08
2018-02-15T04:21:06.537Z,-0.10
2018-02-15T04:23:33.961Z,-0.12
2018-02-15T04:26:01.356Z,-0.04
2018-02-15T04:28:28.776Z,-0.03
2018-02-15T04:30:56.201Z,0.04
2018-02-15T04:33:23.616Z,0.03
2018-02-15T04:35:51.025Z,0.01
2018-02-15T04:38:18.445Z,-0.08
2018-02-15T04:40:45.852Z,-0.02
2018-02-15T04:43:13.273Z,-0.07
2018-02-15T04:45:40.686Z,-0.10
2018-02-15T04:48:08.109Z,-0.26
2018-02-15T04:50:35.518Z,-0.37
2018-02-15T04:53:02.937Z,-0.44
2018-02-15T04:55:30.356Z,-0.53
2018-02-15T04:57:57.839Z,-0.54
2018-02-15T05:00:25.257Z,-0.52
2018-02-15T05:02:52.665Z,-0.59
2018-02-15T05:05:20.084Z,-0.60
2018-02-15T05:07:47.516Z,-0.60
2018-02-15T05:10:14.928Z,-0.60
2018-02-15T05:12:43.025Z,-0.57
2018-02-15T05:15:10.453Z,-0.55
2018-02-15T05:17:37.868Z,-0.52
2018-02-15T05:20:05.283Z,-0.43
2018-02-15T05:22:32.700Z,-0.38
2018-02-15T05:25:00.123Z,-0.31
2018-02-15T05:27:27.537Z,-0.19
2018-02-15T05:29:54.959Z,-0.07
2018-02-15T05:32:22.364Z,0.14
2018-02-15T05:34:49.793Z,0.33
2018-02-15T05:37:17.193Z,0.58
2018-02-15T05:39:44.604Z,0.53
2018-02-15T05:42:12.004Z,0.41
2018-02-15T05:44:39.430Z,0.22
2018-02-15T05:47:06.840Z,0.10
2018-02-15T05:49:34.257Z,0.04
2018-02-15T05:52:01.666Z,0.08
2018-02-15T05:54:29.080Z,0.12
2018-02-15T05:56:56.500Z,0.16
2018-02-15T05:59:23.927Z,0.22
2018-02-15T06:01:51.328Z,0.12
2018-02-15T06:04:18.749Z,0.14
2018-02-15T06:06:46.164Z,0.24
2018-02-15T06:09:13.577Z,0.34
2018-02-15T06:11:40.988Z,0.28
2018-02-15T06:14:08.397Z,0.29
2018-02-15T06:16:35.812Z,0.41
2018-02-15T06:19:03.223Z,0.48
2018-02-15T06:21:30.644Z,0.52
2018-02-15T06:23:58.048Z,0.56
2018-02-15T06:26:25.452Z,0.56
2018-02-15T06:28:52.851Z,0.58
2018-02-15T06:31:20.282Z,0.56
2018-02-15T06:33:47.680Z,0.66
2018-02-15T06:36:15.107Z,0.65
2018-02-15T06:38:42.495Z,0.62
2018-02-15T06:41:09.912Z,0.68
2018-02-15T06:43:37.322Z,0.69
2018-02-15T06:46:04.730Z,0.73
2018-02-15T06:48:32.133Z,0.79
2018-02-15T06:50:59.558Z,0.75
2018-02-15T06:53:26.959Z,0.75
2018-02-15T06:55:54.368Z,0.74
2018-02-15T06:58:21.772Z,0.68
2018-02-15T07:00:49.956Z,0.66
2018-02-15T07:03:17.954Z,0.66
2018-02-15T07:05:45.380Z,0.75
2018-02-15T07:08:12.779Z,0.89
2018-02-15T07:10:40.190Z,0.88
2018-02-15T07:13:07.593Z,0.85
2018-02-15T07:15:35.004Z,0.98
2018-02-15T07:18:02.409Z,1.16
2018-02-15T07:20:29.802Z,1.34
2018-02-15T07:22:57.223Z,1.30
2018-02-15T07:25:24.618Z,1.31
2018-02-15T07:27:52.035Z,1.30
2018-02-15T07:30:19.432Z,1.22
2018-02-15T07:32:46.844Z,1.31
2018-02-15T07:35:14.237Z,1.29
2018-02-15T07:37:41.858Z,1.41
2018-02-15T07:40:09.269Z,1.31
2018-02-15T07:42:36.687Z,1.23
2018-02-15T07:45:04.084Z,1.20
2018-02-15T07:47:31.497Z,1.26
2018-02-15T07:49:58.900Z,1.51
2018-02-15T07:52:26.307Z,1.57
2018-02-15T07:54:53.717Z,1.50
2018-02-15T07:57:21.127Z,1.42
2018-02-15T07:59:48.542Z,1.37
2018-02-15T08:02:15.956Z,1.33
2018-02-15T08:04:43.369Z,1.35
2018-02-15T08:07:10.797Z,1.32
2018-02-15T08:09:38.206Z,1.22
2018-02-15T08:12:05.626Z,1.42
2018-02-15T08:14:33.037Z,1.29
2018-02-15T08:17:00.458Z,1.29
2018-02-15T08:19:27.864Z,1.24
2018-02-15T08:21:55.270Z,1.31
2018-02-15T08:24:22.693Z,1.29
2018-02-15T08:26:50.103Z,1.33
2018-02-15T08:29:17.526Z,1.25
2018-02-15T08:31:44.929Z,1.29
2018-02-15T08:34:12.350Z,1.29
2018-02-15T08:36:39.760Z,1.31
2018-02-15T08:39:07.175Z,1.45
2018-02-15T08:41:34.573Z,1.37
2018-02-15T08:44:02.008Z,1.30
2018-02-15T08:46:29.485Z,1.36
2018-02-15T08:48:56.903Z,1.51
2018-02-15T08:51:24.305Z,1.37
2018-02-15T08:53:51.722Z,1.45
2018-02-15T08:56:20.227Z,1.60
2018-02-15T08:58:47.684Z,1.53
2018-02-15T09:01:15.087Z,1.50
2018-02-15T09:03:42.516Z,1.53
2018-02-15T09:06:09.912Z,1.49
2018-02-15T09:08:37.327Z,1.42
2018-02-15T09:11:04.750Z,1.36
2018-02-15T09:13:32.151Z,1.37
2018-02-15T09:15:59.560Z,1.36
2018-02-15T09:18:26.985Z,1.46
2018-02-15T09:20:54.393Z,1.43
2018-02-15T09:23:21.802Z,1.38
2018-02-15T09:25:49.214Z,1.40
2018-02-15T09:28:16.625Z,1.49
2018-02-15T09:30:44.038Z,1.68
2018-02-15T09:33:11.456Z,1.87
2018-02-15T09:35:38.870Z,1.83
2018-02-15T09:38:06.273Z,1.79
2018-02-15T09:40:33.698Z,1.91
2018-02-15T09:43:01.100Z,1.79
2018-02-15T09:45:28.533Z,1.83
2018-02-15T09:47:55.928Z,1.85
2018-02-15T09:50:23.353Z,2.04
2018-02-15T09:52:50.753Z,2.13
2018-02-15T09:55:18.204Z,2.17
2018-02-15T09:57:45.617Z,2.31
2018-02-15T10:00:13.030Z,2.35
2018-02-15T10:02:40.437Z,2.32
2018-02-15T10:05:07.849Z,2.67
2018-02-15T10:07:35.885Z,2.48
2018-02-15T10:10:03.303Z,2.46
2018-02-15T10:12:30.700Z,2.33
2018-02-15T10:14:58.116Z,2.40
2018-02-15T10:17:25.520Z,2.43
2018-02-15T10:19:52.941Z,2.38
2018-02-15T10:22:20.349Z,2.54
2018-02-15T10:24:47.794Z,2.74
2018-02-15T10:27:15.201Z,3.12
2018-02-15T10:29:43.612Z,3.15
2018-02-15T10:32:11.026Z,3.20
2018-02-15T10:34:38.441Z,3.11
2018-02-15T10:37:05.851Z,3.15
2018-02-15T10:39:33.282Z,3.40
2018-02-15T10:42:00.684Z,3.66
2018-02-15T10:44:28.101Z,3.16
2018-02-15T10:46:56.044Z,3.20
2018-02-15T10:49:23.445Z,3.38
2018-02-15T10:51:50.856Z,3.44
2018-02-15T10:54:18.293Z,3.31
2018-02-15T10:56:45.704Z,3.38
2018-02-15T10:59:13.109Z,3.55
2018-02-15T11:01:41.542Z,3.69
2018-02-15T11:07:15.710Z,4.07
2018-02-15T11:09:43.116Z,4.00
2018-02-15T11:12:10.540Z,3.82
2018-02-15T11:14:37.947Z,3.82
2018-02-15T11:17:05.375Z,3.90
2018-02-15T11:19:32.782Z,3.93
2018-02-15T11:22:00.198Z,3.93
2018-02-15T11:24:27.615Z,4.11
2018-02-15T11:26:55.079Z,4.14
2018-02-15T11:29:22.498Z,4.21
2018-02-15T11:31:49.914Z,4.23
2018-02-15T11:34:17.341Z,4.45
2018-02-15T11:36:44.760Z,4.52
2018-02-15T11:39:12.185Z,4.66
2018-02-15T11:41:39.641Z,4.79
2018-02-15T11:44:07.045Z,4.92
2018-02-15T11:46:34.467Z,4.85
2018-02-15T11:49:01.878Z,4.95
2018-02-15T11:51:29.316Z,4.74
2018-02-15T11:53:56.741Z,4.73
2018-02-15T11:56:24.145Z,4.53
2018-02-15T11:58:51.632Z,4.78
2018-02-15T12:01:19.058Z,4.77
2018-02-15T12:03:46.512Z,4.85
2018-02-15T12:06:13.942Z,4.77
2018-02-15T12:08:41.369Z,4.76
2018-02-15T12:11:08.777Z,4.61
2018-02-15T12:13:36.227Z,4.60
2018-02-15T12:16:03.670Z,4.82
2018-02-15T12:18:31.177Z,4.90
2018-02-15T12:20:58.945Z,5.12
2018-02-15T12:23:26.392Z,5.11
2018-02-15T12:25:53.809Z,4.93
2018-02-15T12:28:21.249Z,4.91
2018-02-15T12:30:48.668Z,4.88
2018-02-15T12:33:16.084Z,4.98
2018-02-15T12:35:43.498Z,4.97
2018-02-15T12:38:10.906Z,5.08
2018-02-15T12:40:38.342Z,5.13
2018-02-15T12:43:05.773Z,5.31
2018-02-15T12:45:33.189Z,5.35
2018-02-15T12:48:00.646Z,5.39
2018-02-15T12:50:28.061Z,5.40
2018-02-15T12:52:55.464Z,5.56
2018-02-15T12:55:22.901Z,5.74
2018-02-15T12:57:50.312Z,5.43
2018-02-15T13:00:17.737Z,5.29
2018-02-15T13:02:45.172Z,5.27
2018-02-15T13:05:12.591Z,5.41
2018-02-15T13:07:40.013Z,5.40
2018-02-15T13:10:07.455Z,5.18
2018-02-15T13:12:46.757Z,5.15
2018-02-15T13:15:26.076Z,5.12
2018-02-15T13:17:53.491Z,5.37
2018-02-15T13:20:20.906Z,5.29
2018-02-15T13:22:48.439Z,5.40
2018-02-15T13:25:15.896Z,5.32
2018-02-15T13:27:55.233Z,5.54
2018-02-15T13:30:22.649Z,5.64
2018-02-15T13:32:50.069Z,5.56
2018-02-15T13:35:17.475Z,5.61
2018-02-15T13:37:44.894Z,5.58
2018-02-15T13:40:12.313Z,5.59
2018-02-15T13:42:39.736Z,5.66
2018-02-15T13:45:07.195Z,5.53
2018-02-15T13:47:34.608Z,5.54
2018-02-15T13:50:02.038Z,5.70
2018-02-15T13:52:29.460Z,5.87
2018-02-15T13:54:56.889Z,5.65
2018-02-15T13:57:24.304Z,5.75
2018-02-15T13:59:51.834Z,5.84
2018-02-15T14:02:19.251Z,6.11
2018-02-15T14:04:46.663Z,6.32
2018-02-15T14:07:14.137Z,6.02
2018-02-15T14:09:41.649Z,5.91
2018-02-15T14:12:09.072Z,5.84
2018-02-15T14:14:36.514Z,5.81
2018-02-15T14:17:03.951Z,5.86
2018-02-15T14:19:31.376Z,6.01
2018-02-15T14:21:58.823Z,6.09
2018-02-15T14:24:26.230Z,6.15
2018-02-15T14:26:53.660Z,6.13
2018-02-15T14:29:21.067Z,6.18
2018-02-15T14:31:48.495Z,6.21
2018-02-15T14:34:16.002Z,6.23
2018-02-15T14:36:43.505Z,6.06
2018-02-15T14:39:10.912Z,6.05
2018-02-15T14:41:38.366Z,5.72
2018-02-15T14:44:05.773Z,5.61
2018-02-15T14:46:33.942Z,5.49
2018-02-15T14:49:01.358Z,5.21
2018-02-15T14:51:28.778Z,5.17
2018-02-15T14:53:56.174Z,5.21
2018-02-15T14:56:23.613Z,5.22
2018-02-15T14:58:51.026Z,5.22
2018-02-15T15:01:18.433Z,5.23
2018-02-15T15:03:45.852Z,5.28
2018-02-15T15:06:13.274Z,5.24
2018-02-15T15:08:40.677Z,5.26
2018-02-15T15:11:08.120Z,5.24
2018-02-15T15:13:35.595Z,5.16
2018-02-15T15:16:03.029Z,5.23
2018-02-15T15:18:30.441Z,5.27
2018-02-15T15:20:57.861Z,5.11
2018-02-15T15:23:25.325Z,5.11
2018-02-15T15:25:52.742Z,5.06
2018-02-15T15:28:20.814Z,5.03
2018-02-15T15:30:48.256Z,4.98
2018-02-15T15:33:15.657Z,5.00
2018-02-15T15:35:43.077Z,5.21
2018-02-15T15:38:10.492Z,5.27
2018-02-15T15:40:37.942Z,5.10
2018-02-15T15:43:06.528Z,5.12
2018-02-15T15:45:33.933Z,5.13
2018-02-15T15:48:01.385Z,5.08
2018-02-15T15:50:28.793Z,5.00
2018-02-15T15:52:56.236Z,4.98
2018-02-15T15:55:23.632Z,5.27
2018-02-15T15:57:51.057Z,5.29
2018-02-15T16:00:18.490Z,5.24
2018-02-15T16:02:45.958Z,5.17
2018-02-15T16:05:13.377Z,5.11
2018-02-15T16:07:40.807Z,4.99
2018-02-15T16:10:08.241Z,4.96
2018-02-15T16:12:35.666Z,5.11
2018-02-15T16:15:03.074Z,5.08
2018-02-15T16:17:30.485Z,5.08
2018-02-15T16:19:57.892Z,5.14
2018-02-15T16:22:25.305Z,5.37
2018-02-15T16:24:52.719Z,5.50
2018-02-15T16:27:20.170Z,5.47
2018-02-15T16:29:47.592Z,5.64
2018-02-15T16:32:15.021Z,5.48
2018-02-15T16:34:42.431Z,5.25
2018-02-15T16:37:09.883Z,5.27
2018-02-15T16:39:38.028Z,5.28
2018-02-15T16:42:05.493Z,5.37
2018-02-15T16:44:32.897Z,5.33
2018-02-15T16:47:00.323Z,5.05
2018-02-15T16:49:27.735Z,4.96
2018-02-15T16:51:55.222Z,5.00
2018-02-15T16:54:22.629Z,4.89
2018-02-15T16:56:50.046Z,4.70
2018-02-15T16:59:17.534Z,4.90
2018-02-15T17:01:44.961Z,4.83
2018-02-15T17:04:14.330Z,4.83
2018-02-15T17:06:41.737Z,4.88
2018-02-15T17:09:09.168Z,4.77
2018-02-15T17:11:36.586Z,4.82
2018-02-15T17:14:04.085Z,4.89
2018-02-15T17:16:32.006Z,4.96
2018-02-15T17:18:59.421Z,4.99
2018-02-15T17:21:26.840Z,5.15
2018-02-15T17:23:54.252Z,5.10
2018-02-15T17:26:21.664Z,5.25
2018-02-15T17:28:49.083Z,5.09
2018-02-15T17:31:16.488Z,4.98
2018-02-15T17:33:43.918Z,4.82
2018-02-15T17:36:11.330Z,4.79
2018-02-15T17:38:39.773Z,4.58
2018-02-15T17:41:07.207Z,4.50
2018-02-15T17:43:34.626Z,4.40
2018-02-15T17:46:02.066Z,4.36
2018-02-15T17:48:29.491Z,4.42
2018-02-15T17:50:56.910Z,4.46
2018-02-15T17:53:24.325Z,4.49
2018-02-15T17:55:51.737Z,4.43
2018-02-15T17:58:19.145Z,4.40
2018-02-15T18:00:46.582Z,4.23
2018-02-15T18:03:14.041Z,4.15
2018-02-15T18:05:41.409Z,4.12
2018-02-15T18:08:08.822Z,4.08
2018-02-15T18:10:36.234Z,4.10
2018-02-15T18:13:03.647Z,4.09
2018-02-15T18:15:31.079Z,4.11
2018-02-15T18:17:58.512Z,4.09
2018-02-15T18:20:25.940Z,3.99
2018-02-15T18:22:53.340Z,4.04
2018-02-15T18:25:20.761Z,3.98
2018-02-15T18:27:48.164Z,4.05
2018-02-15T18:30:15.629Z,4.02
2018-02-15T18:32:43.052Z,4.01
2018-02-15T18:35:10.506Z,4.07
2018-02-15T18:37:37.950Z,4.13
2018-02-15T18:40:05.369Z,4.14
2018-02-15T18:42:32.784Z,4.19
2018-02-15T18:45:00.203Z,4.27
2018-02-15T18:47:27.676Z,4.44
2018-02-15T18:49:55.142Z,4.36
2018-02-15T18:52:22.599Z,4.39
2018-02-15T18:54:50.020Z,4.28
2018-02-15T18:57:17.424Z,4.35
2018-02-15T18:59:44.845Z,4.40
2018-02-15T19:02:12.753Z,4.25
2018-02-15T19:04:40.173Z,4.21
2018-02-15T19:07:07.582Z,4.19
2018-02-15T19:09:35.006Z,4.21
2018-02-15T19:12:02.425Z,4.26
2018-02-15T19:14:29.841Z,4.27
2018-02-15T19:16:57.254Z,4.19
2018-02-15T19:19:24.690Z,4.16
2018-02-15T19:21:52.139Z,4.15
2018-02-15T19:24:19.613Z,4.04
2018-02-15T19:26:47.045Z,4.00
2018-02-15T19:29:14.805Z,4.11
2018-02-15T19:31:42.238Z,4.03
2018-02-15T19:34:09.750Z,4.05
2018-02-15T19:36:37.202Z,4.03
2018-02-15T19:39:04.638Z,4.04
2018-02-15T19:41:32.120Z,4.09
2018-02-15T19:43:59.550Z,4.15
2018-02-15T19:46:26.969Z,4.11
2018-02-15T19:48:54.385Z,4.08
2018-02-15T19:51:21.825Z,4.20
2018-02-15T19:53:49.236Z,4.31
2018-02-15T19:56:16.665Z,4.40
2018-02-15T19:58:44.077Z,4.59
2018-02-15T20:01:11.568Z,4.52
2018-02-15T20:03:38.969Z,4.53
2018-02-15T20:06:06.389Z,4.51
2018-02-15T20:08:33.803Z,4.44
2018-02-15T20:11:01.213Z,4.31
2018-02-15T20:13:28.649Z,4.32
2018-02-15T20:15:56.060Z,4.26
2018-02-15T20:18:23.477Z,4.32
2018-02-15T20:20:50.897Z,4.19
2018-02-15T20:23:18.307Z,4.07
2018-02-15T20:28:47.066Z,4.03
2018-02-15T20:31:14.476Z,3.96
2018-02-15T20:33:41.881Z,3.89
2018-02-15T20:36:09.307Z,3.88
2018-02-15T20:38:42.274Z,3.86
2018-02-15T20:41:09.684Z,3.92
2018-02-15T20:43:37.092Z,3.94
2018-02-15T20:46:04.505Z,3.91
2018-02-15T20:48:31.942Z,3.96
2018-02-15T20:51:05.025Z,4.00
2018-02-15T20:53:38.106Z,4.10
2018-02-15T20:56:05.527Z,4.19
2018-02-15T20:58:32.924Z,4.36
2018-02-15T21:01:00.332Z,4.33
2018-02-15T21:03:27.737Z,4.37
2018-02-15T21:05:55.146Z,4.30
2018-02-15T21:08:22.554Z,4.19
2018-02-15T21:10:49.989Z,4.28
2018-02-15T21:13:17.401Z,4.33
2018-02-15T21:15:44.812Z,4.35
2018-02-15T21:18:12.212Z,4.35
2018-02-15T21:20:39.622Z,4.44
2018-02-15T21:23:07.044Z,4.39
2018-02-15T21:25:34.443Z,4.44
2018-02-15T21:28:01.861Z,4.34
2018-02-15T21:30:29.256Z,4.38
2018-02-15T21:32:56.680Z,4.39
2018-02-15T21:35:24.080Z,4.34
2018-02-15T21:37:51.492Z,4.33
2018-02-15T21:40:18.897Z,4.29
2018-02-15T21:42:46.320Z,4.30
2018-02-15T21:45:13.720Z,4.27
2018-02-15T21:47:41.140Z,4.31
2018-02-15T21:50:08.528Z,4.52
2018-02-15T21:52:35.951Z,4.47
2018-02-15T21:55:03.352Z,4.44
2018-02-15T21:57:30.770Z,4.39
2018-02-15T22:02:40.128Z,4.64
2018-02-15T22:05:07.520Z,4.45
2018-02-15T22:07:34.940Z,4.34
2018-02-15T22:10:02.347Z,4.34
2018-02-15T22:12:29.749Z,4.36
2018-02-15T22:14:57.149Z,4.43
2018-02-15T22:17:24.564Z,4.50
2018-02-15T22:19:52.803Z,4.53
2018-02-15T22:22:20.190Z,4.34
2018-02-15T22:24:47.589Z,4.37
2018-02-15T22:27:15.022Z,4.29
2018-02-15T22:29:42.428Z,4.32
2018-02-15T22:32:09.841Z,4.24
2018-02-15T22:34:37.254Z,4.19
2018-02-15T22:37:04.644Z,4.27
2018-02-15T22:39:32.065Z,4.22
2018-02-15T22:41:59.465Z,4.20
2018-02-15T22:44:26.876Z,4.21
2018-02-15T22:46:54.272Z,4.22
2018-02-15T22:49:21.684Z,4.32
2018-02-15T22:51:49.085Z,4.39
2018-02-15T22:54:16.502Z,4.34
2018-02-15T22:56:43.937Z,4.43
2018-02-15T22:59:11.317Z,4.44
2018-02-15T23:01:38.718Z,4.40
2018-02-15T23:04:06.133Z,4.51
2018-02-15T23:06:33.554Z,4.64
2018-02-15T23:09:00.971Z,4.62
2018-02-15T23:11:28.368Z,4.73
2018-02-15T23:13:55.815Z,4.63
2018-02-15T23:16:23.192Z,4.86
2018-02-15T23:18:50.605Z,4.87
2018-02-15T23:21:18.012Z,4.71
2018-02-15T23:23:45.512Z,4.67
2018-02-15T23:26:12.905Z,4.68
2018-02-15T23:28:40.325Z,4.71
2018-02-15T23:31:07.726Z,4.69
2018-02-15T23:33:35.147Z,4.59
2018-02-15T23:36:02.544Z,4.56
2018-02-15T23:38:29.952Z,4.54
2018-02-15T23:40:57.365Z,4.68
2018-02-15T23:43:25.003Z,4.57
2018-02-15T23:45:52.419Z,4.60
2018-02-15T23:48:19.826Z,4.63
2018-02-15T23:50:47.244Z,4.51
2018-02-15T23:53:14.635Z,4.58
2018-02-15T23:55:42.054Z,4.60
2018-02-15T23:58:09.452Z,4.65
